createdAt,value
2023-05-07T00:01:01.296Z,12.15
2023-05-07T00:03:28.236Z,13.55
2023-05-07T00:05:54.952Z,12.50
2023-05-07T00:08:21.622Z,12.25
2023-05-07T00:10:48.234Z,14.40
2023-05-07T00:13:15.852Z,14.02
2023-05-07T00:15:42.560Z,13.98
2023-05-07T00:18:09.262Z,11.73
2023-05-07T00:20:36.337Z,11.48
2023-05-07T00:23:03.291Z,14.25
2023-05-07T00:25:29.961Z,15.23
2023-05-07T00:27:56.699Z,15.38
2023-05-07T00:30:23.263Z,11.60
2023-05-07T00:32:51.708Z,12.27
2023-05-07T00:35:18.385Z,13.18
2023-05-07T00:37:44.998Z,14.15
2023-05-07T00:40:12.460Z,16.35
2023-05-07T00:42:39.259Z,14.85
2023-05-07T00:45:06.305Z,15.13
2023-05-07T00:47:33.014Z,14.43
2023-05-07T00:49:59.801Z,14.70
2023-05-07T00:52:27.190Z,12.60
2023-05-07T00:54:54.247Z,11.93
2023-05-07T00:57:22.928Z,13.05
2023-05-07T00:59:50.491Z,11.73
2023-05-07T01:02:17.755Z,13.68
2023-05-07T01:04:44.619Z,16.42
2023-05-07T01:07:11.853Z,10.05
2023-05-07T01:09:38.628Z,13.90
2023-05-07T01:12:05.947Z,11.45
2023-05-07T01:14:34.032Z,15.40
2023-05-07T01:17:00.984Z,13.02
2023-05-07T01:19:29.553Z,12.80
2023-05-07T01:22:03.510Z,12.20
2023-05-07T01:24:31.459Z,14.38
2023-05-07T01:26:58.001Z,13.30
2023-05-07T01:29:24.580Z,13.52
2023-05-07T01:31:52.572Z,14.98
2023-05-07T01:34:22.233Z,10.25
2023-05-07T01:36:49.735Z,14.73
2023-05-07T01:39:17.055Z,13.93
2023-05-07T01:41:44.430Z,13.77
2023-05-07T01:44:14.364Z,17.63
2023-05-07T01:46:41.367Z,13.30
2023-05-07T01:49:08.337Z,12.65
2023-05-07T01:51:35.475Z,13.50
2023-05-07T01:54:02.202Z,11.15
2023-05-07T01:56:28.770Z,13.43
2023-05-07T01:58:55.435Z,9.27
2023-05-07T02:01:22.153Z,9.82
2023-05-07T02:03:49.235Z,15.13
2023-05-07T02:06:15.884Z,10.73
2023-05-07T02:08:42.506Z,12.85
2023-05-07T02:11:09.039Z,12.15
2023-05-07T02:13:35.902Z,11.93
2023-05-07T02:16:03.504Z,10.80
2023-05-07T02:18:30.314Z,11.07
2023-05-07T02:20:56.980Z,12.65
2023-05-07T02:23:23.603Z,12.02
2023-05-07T02:25:50.290Z,11.80
2023-05-07T02:28:16.823Z,12.85
2023-05-07T02:30:43.428Z,12.38
2023-05-07T02:33:10.063Z,11.02
2023-05-07T02:35:36.693Z,13.60
2023-05-07T02:38:03.746Z,10.50
2023-05-07T02:40:30.381Z,12.75
2023-05-07T02:42:56.916Z,11.18
2023-05-07T02:45:23.525Z,10.00
2023-05-07T02:47:50.311Z,11.13
2023-05-07T02:50:17.089Z,11.02
2023-05-07T02:52:43.662Z,10.65
2023-05-07T02:55:10.292Z,12.70
2023-05-07T02:57:37.960Z,12.07
2023-05-07T03:00:18.722Z,8.52
2023-05-07T03:02:46.131Z,11.60
2023-05-07T03:05:13.471Z,12.13
2023-05-07T03:07:40.221Z,10.25
2023-05-07T03:10:07.239Z,9.50
2023-05-07T03:12:33.891Z,11.45
2023-05-07T03:15:00.454Z,11.48
2023-05-07T03:17:27.089Z,11.45
2023-05-07T03:19:53.710Z,14.32
2023-05-07T03:22:20.342Z,11.50
2023-05-07T03:24:46.941Z,10.10
2023-05-07T03:27:13.766Z,11.15
2023-05-07T03:29:40.449Z,12.77
2023-05-07T03:32:07.349Z,12.48
2023-05-07T03:34:33.904Z,12.93
2023-05-07T03:37:01.156Z,11.13
2023-05-07T03:39:27.735Z,12.48
2023-05-07T03:41:54.330Z,14.23
2023-05-07T03:44:21.037Z,16.17
2023-05-07T03:46:47.636Z,10.70
2023-05-07T03:49:14.243Z,13.98
2023-05-07T03:51:41.048Z,12.77
2023-05-07T03:54:07.669Z,10.23
2023-05-07T03:56:34.266Z,14.27
2023-05-07T03:59:01.868Z,11.00
2023-05-07T04:01:28.519Z,11.43
2023-05-07T04:03:55.228Z,11.93
2023-05-07T04:06:21.933Z,11.80
2023-05-07T04:08:48.512Z,12.60
2023-05-07T04:11:15.262Z,13.25
2023-05-07T04:13:41.845Z,12.25
2023-05-07T04:16:09.560Z,11.30
2023-05-07T04:18:36.236Z,14.18
2023-05-07T04:21:02.821Z,13.18
2023-05-07T04:23:29.405Z,12.52
2023-05-07T04:25:56.248Z,12.65
2023-05-07T04:28:23.062Z,13.00
2023-05-07T04:30:49.677Z,10.82
2023-05-07T04:33:17.905Z,11.68
2023-05-07T04:35:44.766Z,11.65
2023-05-07T04:38:11.943Z,10.63
2023-05-07T04:40:38.560Z,12.68
2023-05-07T04:43:05.401Z,13.35
2023-05-07T04:45:32.061Z,11.07
2023-05-07T04:47:58.668Z,11.48
2023-05-07T04:50:25.983Z,12.02
2023-05-07T04:52:52.543Z,11.88
2023-05-07T04:55:19.200Z,12.18
2023-05-07T04:57:46.222Z,10.18
2023-05-07T05:00:15.389Z,11.13
2023-05-07T05:02:42.364Z,11.88
2023-05-07T05:05:09.370Z,10.75
2023-05-07T05:07:35.920Z,12.68
2023-05-07T05:10:04.112Z,10.45
2023-05-07T05:12:31.431Z,12.43
2023-05-07T05:14:58.026Z,10.52
2023-05-07T05:17:24.746Z,10.35
2023-05-07T05:19:53.039Z,10.80
2023-05-07T05:22:19.606Z,10.25
2023-05-07T05:24:46.223Z,8.48
2023-05-07T05:27:12.801Z,11.00
2023-05-07T05:29:39.368Z,13.23
2023-05-07T05:32:06.163Z,9.23
2023-05-07T05:34:34.125Z,11.25
2023-05-07T05:37:00.813Z,11.90
2023-05-07T05:39:27.409Z,9.10
2023-05-07T05:41:53.919Z,11.65
2023-05-07T05:44:20.628Z,9.98
2023-05-07T05:46:47.367Z,8.45
2023-05-07T05:49:13.953Z,10.52
2023-05-07T05:51:40.548Z,10.18
2023-05-07T05:54:07.147Z,14.15
2023-05-07T05:56:33.911Z,15.02
2023-05-07T05:59:00.861Z,11.35
2023-05-07T06:01:27.613Z,10.13
2023-05-07T06:03:54.188Z,9.80
2023-05-07T06:06:20.976Z,12.13
2023-05-07T06:08:47.650Z,11.00
2023-05-07T06:11:14.298Z,10.32
2023-05-07T06:13:40.858Z,10.32
2023-05-07T06:16:07.873Z,11.77
2023-05-07T06:18:36.932Z,8.73
2023-05-07T06:21:03.597Z,9.52
2023-05-07T06:23:30.282Z,13.65
2023-05-07T06:25:56.886Z,12.10
2023-05-07T06:28:23.536Z,10.60
2023-05-07T06:30:50.980Z,10.45
2023-05-07T06:33:17.592Z,13.07
2023-05-07T06:35:44.146Z,8.60
2023-05-07T06:38:11.533Z,10.55
2023-05-07T06:40:40.286Z,10.45
2023-05-07T06:43:06.863Z,8.13
2023-05-07T06:45:33.494Z,8.40
2023-05-07T06:48:00.711Z,8.57
2023-05-07T06:50:29.776Z,9.95
2023-05-07T06:52:56.331Z,8.07
2023-05-07T06:55:22.902Z,10.52
2023-05-07T06:57:49.496Z,8.60
2023-05-07T07:00:16.456Z,10.25
2023-05-07T07:02:43.095Z,8.48
2023-05-07T07:05:11.538Z,8.43
2023-05-07T07:07:38.245Z,8.30
2023-05-07T07:10:05.713Z,11.13
2023-05-07T07:12:32.285Z,10.88
2023-05-07T07:14:58.837Z,10.65
2023-05-07T07:17:25.474Z,9.93
2023-05-07T07:19:52.054Z,8.27
2023-05-07T07:22:18.579Z,7.97
2023-05-07T07:24:45.133Z,10.45
2023-05-07T07:27:12.724Z,8.02
2023-05-07T07:29:39.330Z,9.25
2023-05-07T07:32:06.011Z,9.38
2023-05-07T07:34:32.810Z,10.07
2023-05-07T07:36:59.394Z,9.75
2023-05-07T07:39:25.944Z,7.90
2023-05-07T07:41:52.462Z,10.80
2023-05-07T07:44:19.071Z,8.77
2023-05-07T07:46:45.731Z,8.38
2023-05-07T07:49:14.430Z,8.93
2023-05-07T07:51:41.015Z,10.40
2023-05-07T07:54:07.639Z,7.60
2023-05-07T07:56:37.238Z,8.98
2023-05-07T07:59:04.762Z,7.38
2023-05-07T08:01:31.686Z,8.75
2023-05-07T08:03:59.958Z,9.13
2023-05-07T08:06:27.087Z,7.68
2023-05-07T08:08:53.685Z,7.72
2023-05-07T08:11:20.890Z,8.55
2023-05-07T08:13:47.839Z,8.18
2023-05-07T08:16:16.170Z,6.65
2023-05-07T08:18:42.717Z,7.43
2023-05-07T08:21:09.455Z,9.65
2023-05-07T08:23:36.022Z,9.15
2023-05-07T08:26:02.602Z,7.00
2023-05-07T08:28:29.164Z,6.65
2023-05-07T08:30:57.567Z,8.27
2023-05-07T08:33:24.260Z,7.15
2023-05-07T08:35:52.998Z,9.38
2023-05-07T08:38:19.609Z,7.45
2023-05-07T08:40:48.485Z,8.73
2023-05-07T08:43:15.907Z,7.45
2023-05-07T08:45:43.591Z,7.22
2023-05-07T08:48:15.471Z,8.50
2023-05-07T08:50:42.018Z,7.00
2023-05-07T08:53:08.931Z,6.38
2023-05-07T08:55:35.638Z,9.57
2023-05-07T08:58:02.421Z,8.68
2023-05-07T09:00:28.999Z,5.85
2023-05-07T09:02:56.813Z,7.30
2023-05-07T09:05:23.428Z,7.00
2023-05-07T09:07:52.638Z,6.20
2023-05-07T09:10:22.982Z,9.38
2023-05-07T09:12:49.630Z,8.63
2023-05-07T09:15:16.610Z,9.73
2023-05-07T09:17:44.594Z,6.03
2023-05-07T09:20:11.541Z,8.73
2023-05-07T09:22:39.028Z,7.93
2023-05-07T09:25:07.858Z,9.48
2023-05-07T09:27:34.633Z,7.47
2023-05-07T09:30:07.541Z,7.63
2023-05-07T09:32:40.836Z,7.40
2023-05-07T09:35:15.574Z,6.10
2023-05-07T09:37:42.319Z,5.55
2023-05-07T09:40:23.208Z,6.35
2023-05-07T09:42:51.785Z,6.45
2023-05-07T09:45:27.079Z,5.60
2023-05-07T09:47:59.023Z,5.40
2023-05-07T09:50:37.395Z,9.23
2023-05-07T09:53:05.108Z,8.40
2023-05-07T09:55:31.955Z,6.65
2023-05-07T09:57:59.708Z,6.85
2023-05-07T10:00:27.809Z,6.10
2023-05-07T10:02:58.226Z,5.72
2023-05-07T10:05:26.106Z,6.47
2023-05-07T10:07:53.954Z,6.60
2023-05-07T10:10:21.107Z,5.20
2023-05-07T10:12:48.432Z,5.50
2023-05-07T10:15:15.930Z,5.55
2023-05-07T10:17:42.638Z,7.40
2023-05-07T10:20:10.581Z,6.43
2023-05-07T10:22:44.585Z,6.05
2023-05-07T10:25:19.048Z,6.30
2023-05-07T10:27:50.788Z,5.65
2023-05-07T10:30:38.068Z,6.00
2023-05-07T10:33:09.773Z,5.78
2023-05-07T10:35:43.653Z,5.70
2023-05-07T10:38:10.696Z,5.68
2023-05-07T10:40:37.453Z,6.38
2023-05-07T10:43:07.767Z,6.60
2023-05-07T10:45:36.786Z,8.18
2023-05-07T10:48:28.972Z,6.75
2023-05-07T10:51:21.183Z,6.00
2023-05-07T10:53:47.849Z,6.60
2023-05-07T10:56:20.305Z,6.43
2023-05-07T10:58:49.093Z,6.25
2023-05-07T11:01:17.935Z,4.53
2023-05-07T11:04:16.595Z,5.32
2023-05-07T11:07:03.203Z,7.00
2023-05-07T11:09:52.553Z,5.53
2023-05-07T11:12:39.455Z,4.68
2023-05-07T11:15:08.893Z,5.25
2023-05-07T11:17:52.545Z,5.28
2023-05-07T11:20:19.565Z,6.28
2023-05-07T11:22:46.098Z,6.10
2023-05-07T11:25:19.968Z,6.35
2023-05-07T11:27:46.720Z,5.10
2023-05-07T11:30:19.540Z,5.00
2023-05-07T11:32:48.946Z,6.35
2023-05-07T11:35:16.769Z,4.35
2023-05-07T11:37:44.798Z,5.78
2023-05-07T11:40:12.213Z,5.88
2023-05-07T11:42:40.703Z,6.95
2023-05-07T11:45:08.388Z,4.68
2023-05-07T11:47:35.425Z,4.63
2023-05-07T11:50:08.419Z,4.90
2023-05-07T11:52:35.874Z,4.60
2023-05-07T11:55:04.814Z,5.68
2023-05-07T11:57:31.576Z,4.10
2023-05-07T11:59:59.509Z,4.00
2023-05-07T12:02:27.074Z,6.00
2023-05-07T12:04:54.940Z,3.90
2023-05-07T12:07:22.053Z,4.30
2023-05-07T12:09:50.466Z,5.75
2023-05-07T12:12:18.182Z,7.30
2023-05-07T12:14:46.242Z,4.60
2023-05-07T12:17:14.843Z,6.30
2023-05-07T12:19:43.600Z,3.85
2023-05-07T12:22:10.532Z,3.88
2023-05-07T12:24:47.847Z,4.38
2023-05-07T12:27:16.107Z,4.25
2023-05-07T12:29:50.691Z,3.42
2023-05-07T12:32:19.517Z,4.80
2023-05-07T12:34:47.082Z,3.45
2023-05-07T12:37:14.016Z,4.07
2023-05-07T12:39:50.106Z,4.35
2023-05-07T12:42:20.532Z,3.00
2023-05-07T12:44:49.550Z,3.88
2023-05-07T12:47:16.543Z,4.50
2023-05-07T12:49:43.813Z,3.00
2023-05-07T12:52:12.535Z,2.97
2023-05-07T12:54:39.699Z,3.78
2023-05-07T12:57:08.637Z,5.32
2023-05-07T12:59:41.098Z,3.58
2023-05-07T13:02:09.121Z,2.92
2023-05-07T13:04:35.933Z,2.83
2023-05-07T13:07:05.062Z,3.33
2023-05-07T13:09:33.996Z,3.42
2023-05-07T13:12:02.362Z,3.53
2023-05-07T13:14:29.084Z,3.25
2023-05-07T13:16:55.775Z,2.58
2023-05-07T13:19:22.333Z,3.67
2023-05-07T13:21:52.677Z,3.25
2023-05-07T13:24:19.224Z,3.17
2023-05-07T13:26:46.344Z,3.13
2023-05-07T13:29:13.004Z,3.50
2023-05-07T13:31:46.352Z,2.30
2023-05-07T13:34:14.277Z,3.15
2023-05-07T13:36:42.799Z,5.13
2023-05-07T13:39:09.963Z,2.83
2023-05-07T13:41:39.276Z,2.35
2023-05-07T13:44:06.231Z,2.67
2023-05-07T13:46:33.266Z,2.65
2023-05-07T13:49:01.902Z,2.42
2023-05-07T13:51:28.489Z,4.78
2023-05-07T13:53:55.204Z,3.38
2023-05-07T13:56:22.189Z,3.15
2023-05-07T13:58:59.455Z,3.70
2023-05-07T14:01:27.509Z,2.60
2023-05-07T14:03:54.210Z,2.72
2023-05-07T14:06:20.974Z,4.05
2023-05-07T14:08:47.615Z,2.67
2023-05-07T14:11:14.246Z,4.63
2023-05-07T14:13:42.155Z,2.75
2023-05-07T14:16:08.884Z,2.78
2023-05-07T14:18:37.808Z,2.58
2023-05-07T14:21:07.052Z,2.88
2023-05-07T14:23:33.880Z,5.55
2023-05-07T14:26:00.465Z,3.22
2023-05-07T14:28:27.148Z,2.60
2023-05-07T14:30:53.800Z,2.30
2023-05-07T14:33:20.466Z,2.13
2023-05-07T14:35:49.689Z,3.70
2023-05-07T14:38:16.618Z,2.08
2023-05-07T14:40:43.418Z,2.03
2023-05-07T14:43:09.954Z,4.05
2023-05-07T14:45:36.526Z,2.50
2023-05-07T14:48:03.513Z,2.72
2023-05-07T14:50:36.087Z,2.85
2023-05-07T14:53:02.644Z,2.88
2023-05-07T14:55:29.380Z,2.40
2023-05-07T14:57:56.860Z,1.98
2023-05-07T15:00:26.586Z,3.25
2023-05-07T15:02:53.442Z,3.03
2023-05-07T15:05:20.416Z,2.13
2023-05-07T15:07:47.470Z,4.70
2023-05-07T15:10:14.816Z,3.53
2023-05-07T15:12:41.417Z,2.10
2023-05-07T15:15:08.797Z,3.60
2023-05-07T15:17:35.452Z,2.38
2023-05-07T15:20:01.988Z,2.80
2023-05-07T15:22:28.528Z,2.38
2023-05-07T15:24:56.725Z,3.33
2023-05-07T15:27:23.670Z,3.17
2023-05-07T15:29:50.378Z,2.47
2023-05-07T15:32:17.020Z,5.93
2023-05-07T15:34:44.366Z,2.50
2023-05-07T15:37:11.688Z,2.17
2023-05-07T15:39:38.210Z,5.25
2023-05-07T15:42:04.800Z,3.70
2023-05-07T15:44:34.853Z,3.28
2023-05-07T15:47:02.327Z,4.20
2023-05-07T15:49:28.967Z,2.03
2023-05-07T15:51:55.589Z,3.05
2023-05-07T15:54:22.220Z,3.17
2023-05-07T15:56:48.787Z,3.03
2023-05-07T15:59:16.936Z,4.20
2023-05-07T16:01:45.026Z,3.10
2023-05-07T16:04:11.829Z,4.38
2023-05-07T16:06:38.431Z,3.35
2023-05-07T16:09:05.000Z,3.05
2023-05-07T16:11:36.158Z,2.60
2023-05-07T16:14:04.646Z,2.72
2023-05-07T16:16:35.114Z,2.65
2023-05-07T16:19:05.913Z,2.92
2023-05-07T16:21:33.245Z,3.78
2023-05-07T16:23:59.884Z,3.92
2023-05-07T16:26:26.768Z,3.50
2023-05-07T16:28:53.402Z,3.92
2023-05-07T16:31:20.217Z,2.45
2023-05-07T16:33:46.793Z,3.65
2023-05-07T16:36:13.355Z,4.28
2023-05-07T16:38:39.980Z,3.70
2023-05-07T16:41:08.675Z,3.10
2023-05-07T16:43:35.242Z,3.67
2023-05-07T16:46:01.939Z,2.20
2023-05-07T16:48:28.551Z,4.07
2023-05-07T16:50:55.897Z,6.13
2023-05-07T16:53:22.703Z,2.55
2023-05-07T16:55:49.264Z,3.70
2023-05-07T16:58:15.936Z,2.72
2023-05-07T17:00:50.760Z,2.45
2023-05-07T17:03:19.604Z,3.05
2023-05-07T17:05:46.668Z,3.70
2023-05-07T17:08:14.693Z,2.75
2023-05-07T17:10:42.049Z,2.80
2023-05-07T17:13:11.705Z,2.83
2023-05-07T17:15:40.689Z,2.58
2023-05-07T17:18:07.613Z,3.30
2023-05-07T17:20:38.141Z,3.83
2023-05-07T17:23:04.675Z,3.13
2023-05-07T17:25:32.531Z,5.05
2023-05-07T17:27:59.060Z,2.53
2023-05-07T17:30:25.756Z,4.47
2023-05-07T17:32:52.445Z,2.67
2023-05-07T17:35:19.039Z,2.10
2023-05-07T17:37:52.856Z,3.15
2023-05-07T17:40:24.009Z,2.70
2023-05-07T17:42:52.466Z,2.83
2023-05-07T17:45:21.771Z,3.67
2023-05-07T17:47:48.570Z,4.35
2023-05-07T17:50:15.230Z,4.55
2023-05-07T17:52:43.507Z,3.80
2023-05-07T17:55:10.498Z,3.40
2023-05-07T17:57:37.256Z,2.42
2023-05-07T18:00:09.282Z,3.67
2023-05-07T18:02:38.002Z,2.45
2023-05-07T18:05:05.110Z,3.25
2023-05-07T18:10:25.371Z,2.60
2023-05-07T18:12:52.007Z,3.97
2023-05-07T18:15:18.658Z,2.70
2023-05-07T18:17:46.882Z,2.78
2023-05-07T18:20:13.705Z,2.67
2023-05-07T18:22:41.178Z,3.95
2023-05-07T18:25:08.384Z,3.97
2023-05-07T18:27:35.141Z,5.32
2023-05-07T18:30:03.938Z,5.80
2023-05-07T18:32:30.544Z,3.08
2023-05-07T18:34:58.989Z,3.33
2023-05-07T18:37:27.475Z,2.65
2023-05-07T18:39:55.246Z,3.25
2023-05-07T18:42:21.832Z,2.65
2023-05-07T18:44:49.696Z,2.97
2023-05-07T18:47:16.457Z,3.28
2023-05-07T18:49:43.069Z,2.78
2023-05-07T18:52:09.720Z,3.78
2023-05-07T18:54:38.178Z,4.00
2023-05-07T18:57:04.731Z,3.25
2023-05-07T18:59:31.388Z,3.58
2023-05-07T19:01:57.926Z,2.85
2023-05-07T19:04:24.809Z,3.33
2023-05-07T19:06:52.813Z,3.60
2023-05-07T19:09:21.325Z,4.82
2023-05-07T19:11:49.693Z,5.80
2023-05-07T19:14:16.312Z,3.50
2023-05-07T19:16:44.718Z,3.67
2023-05-07T19:19:11.352Z,3.15
2023-05-07T19:21:38.785Z,2.88
2023-05-07T19:24:05.726Z,2.83
2023-05-07T19:26:32.889Z,3.08
2023-05-07T19:29:12.359Z,2.67
2023-05-07T19:31:44.470Z,2.50
2023-05-07T19:34:13.082Z,2.78
2023-05-07T19:36:40.097Z,2.83
2023-05-07T19:39:06.668Z,3.08
2023-05-07T19:41:35.048Z,4.68
2023-05-07T19:44:01.708Z,4.15
2023-05-07T19:46:29.944Z,2.75
2023-05-07T19:48:56.554Z,3.05
2023-05-07T19:51:24.498Z,4.00
2023-05-07T19:53:51.329Z,2.28
2023-05-07T19:56:17.944Z,4.10
2023-05-07T19:58:44.513Z,4.75
2023-05-07T20:01:11.166Z,3.17
2023-05-07T20:03:38.058Z,2.75
2023-05-07T20:06:04.898Z,3.55
2023-05-07T20:08:31.521Z,3.35
2023-05-07T20:11:01.081Z,2.83
2023-05-07T20:13:28.050Z,4.90
2023-05-07T20:16:01.804Z,2.35
2023-05-07T20:18:29.105Z,3.75
2023-05-07T20:20:58.395Z,2.65
2023-05-07T20:23:25.329Z,3.90
2023-05-07T20:25:52.436Z,4.88
2023-05-07T20:28:20.575Z,4.93
2023-05-07T20:30:47.214Z,3.65
2023-05-07T20:33:15.467Z,2.75
2023-05-07T20:35:42.112Z,4.13
2023-05-07T20:38:08.810Z,2.83
2023-05-07T20:40:37.712Z,3.03
2023-05-07T20:43:05.887Z,3.63
2023-05-07T20:45:32.593Z,3.08
2023-05-07T20:48:00.249Z,4.45
2023-05-07T20:50:27.243Z,4.60
2023-05-07T20:52:53.802Z,3.92
2023-05-07T20:55:20.912Z,3.47
2023-05-07T20:57:47.472Z,4.28
2023-05-07T21:00:15.709Z,4.55
2023-05-07T21:02:42.547Z,4.68
2023-05-07T21:05:09.346Z,2.90
2023-05-07T21:07:35.949Z,3.22
2023-05-07T21:10:04.028Z,3.28
2023-05-07T21:12:30.725Z,4.55
2023-05-07T21:14:57.497Z,3.55
2023-05-07T21:17:24.174Z,4.18
2023-05-07T21:19:52.012Z,5.05
2023-05-07T21:22:18.602Z,4.43
2023-05-07T21:24:45.225Z,4.72
2023-05-07T21:27:11.824Z,3.90
2023-05-07T21:29:38.515Z,4.45
2023-05-07T21:32:05.546Z,4.60
2023-05-07T21:34:32.213Z,2.95
2023-05-07T21:36:58.826Z,4.00
2023-05-07T21:39:25.586Z,4.13
2023-05-07T21:41:52.202Z,8.48
2023-05-07T21:44:18.829Z,4.10
2023-05-07T21:46:45.646Z,4.00
2023-05-07T21:49:13.431Z,5.43
2023-05-07T21:51:40.203Z,5.60
2023-05-07T21:54:06.985Z,3.67
2023-05-07T21:56:33.620Z,4.25
2023-05-07T21:59:00.222Z,4.50
2023-05-07T22:01:26.780Z,3.22
2023-05-07T22:03:54.207Z,4.82
2023-05-07T22:06:22.344Z,3.13
2023-05-07T22:08:49.588Z,4.47
2023-05-07T22:11:16.432Z,5.50
2023-05-07T22:13:43.246Z,3.15
2023-05-07T22:16:10.001Z,3.60
2023-05-07T22:18:36.632Z,4.18
2023-05-07T22:21:03.329Z,3.22
2023-05-07T22:23:29.968Z,4.53
2023-05-07T22:25:56.532Z,4.80
2023-05-07T22:28:23.085Z,3.90
2023-05-07T22:30:51.098Z,3.72
2023-05-07T22:33:17.715Z,4.70
2023-05-07T22:35:44.318Z,3.53
2023-05-07T22:38:10.978Z,3.83
2023-05-07T22:40:37.603Z,3.67
2023-05-07T22:43:04.236Z,3.53
2023-05-07T22:45:30.861Z,3.33
2023-05-07T22:47:57.533Z,5.30
2023-05-07T22:50:24.109Z,4.03
2023-05-07T22:52:50.705Z,3.83
2023-05-07T22:55:17.428Z,3.72
2023-05-07T22:57:44.055Z,4.82
2023-05-07T23:00:12.094Z,4.65
2023-05-07T23:02:38.918Z,4.38
2023-05-07T23:05:05.784Z,5.63
2023-05-07T23:07:32.498Z,3.28
2023-05-07T23:09:59.078Z,5.65
2023-05-07T23:12:25.688Z,3.90
2023-05-07T23:14:52.239Z,5.95
2023-05-07T23:17:18.873Z,3.78
2023-05-07T23:19:45.574Z,4.20
2023-05-07T23:22:12.328Z,4.20
2023-05-07T23:24:39.074Z,3.88
2023-05-07T23:27:06.583Z,3.08
2023-05-07T23:29:33.546Z,4.07
2023-05-07T23:32:00.312Z,4.22
2023-05-07T23:34:27.098Z,5.75
2023-05-07T23:36:53.988Z,6.47
2023-05-07T23:39:20.851Z,4.28
2023-05-07T23:41:47.485Z,3.88
2023-05-07T23:44:16.431Z,3.10
2023-05-07T23:46:44.288Z,3.60
2023-05-07T23:49:11.010Z,4.38
2023-05-07T23:51:37.835Z,4.25
2023-05-07T23:54:04.957Z,4.00
2023-05-07T23:56:31.771Z,4.13
2023-05-07T23:58:58.388Z,5.97
